Ammansville, Texas
Current Conditions -  °F | °C
As of 5:55 PM on Saturday 22 Nov 2014 (Local Time) from K3T5 Reporting Station
Thunderstorm Thunderstorm  
Wind Chill: 21°   Ceiling: 1000
Heat Index: 21°   Visibility: 10mi
Dew Point: 21°   Wind: 5mph
Humidity: 97%   Direction: 190°S
Pressure: 29.76"   Gusts: NA
Location:  29.8569°N, 96.9311°W
Report Text: K3T5 222355Z AUTO 19004KT 10SM TS OVC010 21/21 A2976 RMK AO2 LTG DSNT N THRU E P0003 60108 T02100205 10210 20192
Loading
Personal Weather Stations






























Interactive Weather Map New forecast layout! Learn more

10-Day Weather Forecast

Advertisements
Track Severe Weather on mobile